Time;durP1;ratioP1;P1;durP2;ratioP2;P2;SDS_P1;SDS_P2;PMS_P1;PMS_P2;Temp;Humidity;BMP_temperature;BMP_pressure;BME280_temperature;BME280_humidity;BME280_pressure;Samples;Min_cycle;Max_cycle;Signal;HPM_P1;HPM_P2
2021/03/12 00:02:33;;;;;;;8.20;1.00;;;;;;;6.36;92.59;99724.66;21151626;28;20080;-68
2021/03/12 00:12:34;;;;;;;4.78;0.90;;;;;;;5.79;94.19;99739.41;21151706;28;20048;-68
2021/03/12 00:22:35;;;;;;;4.90;0.50;;;;;;;5.46;99.43;99741.78;21151792;28;20048;-69
2021/03/12 00:32:37;;;;;;;2.15;0.60;;;;;;;5.24;99.95;99746.19;21150616;28;20056;-68
2021/03/12 00:42:40;;;;;;;3.42;0.57;;;;;;;5.22;98.36;99755.81;21152480;28;20534;-69
2021/03/12 00:52:41;;;;;;;3.97;0.68;;;;;;;5.18;98.05;99752.47;21165387;28;20058;-68
2021/03/12 01:02:42;;;;;;;4.13;0.80;;;;;;;4.99;98.11;99777.50;21163822;28;20078;-68
2021/03/12 01:12:44;;;;;;;3.47;0.90;;;;;;;4.88;97.37;99787.47;21157421;28;20048;-68
2021/03/12 01:22:46;;;;;;;3.05;0.88;;;;;;;4.83;97.24;99788.56;21163116;28;20108;-68
2021/03/12 01:32:47;;;;;;;4.20;0.93;;;;;;;4.95;95.80;99793.28;21161453;28;20097;-69
2021/03/12 01:42:51;;;;;;;6.07;1.20;;;;;;;5.04;93.49;99798.91;21079235;28;20503;-68
2021/03/12 01:52:52;;;;;;;9.15;1.20;;;;;;;5.36;90.46;99788.94;21075982;28;20047;-68
2021/03/12 02:02:59;;;;;;;4.78;0.90;;;;;;;5.65;86.10;99788.53;21066135;28;20048;-68
2021/03/12 02:13:24;;;;;;;6.32;1.10;;;;;;;5.85;85.54;99798.88;21075792;28;20117;-68
2021/03/12 02:23:50;;;;;;;4.90;0.97;;;;;;;5.71;91.73;99803.00;21075834;28;20453;-69
2021/03/12 02:33:51;;;;;;;4.85;0.93;;;;;;;4.25;100.00;99856.50;21074101;28;20054;-68
2021/03/12 02:43:53;;;;;;;6.18;1.00;;;;;;;4.49;97.83;99862.47;21072903;28;20047;-67
2021/03/12 02:53:55;;;;;;;5.70;1.15;;;;;;;4.67;96.02;99848.00;21072713;28;20048;-67
2021/03/12 03:03:57;;;;;;;6.05;1.42;;;;;;;4.40;98.38;99865.44;21076907;28;20048;-68
2021/03/12 03:13:58;;;;;;;5.43;1.13;;;;;;;4.37;99.11;99880.25;21155453;28;20051;-69
2021/03/12 03:23:59;;;;;;;8.18;1.15;;;;;;;4.54;98.00;99898.59;21156338;28;20482;-69
2021/03/12 03:34:00;;;;;;;5.90;1.05;;;;;;;4.58;98.70;99905.34;21154520;28;20100;-69
2021/03/12 03:44:01;;;;;;;9.05;1.73;;;;;;;4.68;100.00;99909.25;21154515;28;20040;-68
2021/03/12 03:54:04;;;;;;;4.20;1.17;;;;;;;4.71;98.09;99927.31;21154192;28;20050;-68
2021/03/12 04:04:08;;;;;;;9.88;1.17;;;;;;;4.85;94.62;99925.03;21153436;28;20081;-69
2021/03/12 04:14:11;;;;;;;6.90;1.20;;;;;;;4.92;92.98;99949.00;21153446;28;20050;-68
2021/03/12 04:24:12;;;;;;;10.38;1.27;;;;;;;5.01;90.18;99941.69;21168511;28;20043;-68
2021/03/12 04:34:13;;;;;;;8.40;1.23;;;;;;;5.04;90.54;99949.34;21167440;28;20077;-68
2021/03/12 04:44:14;;;;;;;8.70;1.40;;;;;;;5.12;87.34;99949.91;21167380;28;20043;-68
2021/03/12 04:54:17;;;;;;;10.60;1.40;;;;;;;5.04;87.79;99946.75;21167145;28;20043;-69
2021/03/12 05:04:18;;;;;;;8.18;1.17;;;;;;;4.82;88.27;99964.06;21159350;28;20076;-69
2021/03/12 05:14:19;;;;;;;11.07;2.50;;;;;;;4.57;90.67;99963.28;21165098;28;20044;-69
2021/03/12 05:24:20;;;;;;;8.43;1.67;;;;;;;4.63;90.56;99975.97;21164472;28;20047;-69
2021/03/12 05:34:21;;;;;;;8.93;1.70;;;;;;;4.64;90.88;99977.69;21162504;28;20050;-69
2021/03/12 05:44:22;;;;;;;6.85;1.20;;;;;;;4.37;92.63;99983.88;21162570;28;20051;-68
2021/03/12 05:54:23;;;;;;;8.45;1.70;;;;;;;4.39;93.10;100010.56;21163049;28;20043;-69
2021/03/12 06:04:24;;;;;;;7.57;1.77;;;;;;;4.61;91.93;100019.28;21163825;28;20077;-68
2021/03/12 06:14:51;;;;;;;7.07;1.70;;;;;;;4.71;91.68;100015.44;21159902;28;20059;-69
2021/03/12 06:24:53;;;;;;;8.18;1.77;;;;;;;4.94;90.95;100023.22;21159491;28;20529;-69
2021/03/12 06:35:00;;;;;;;9.27;1.30;;;;;;;5.10;88.61;100021.75;21158061;28;20058;-69
2021/03/12 06:45:02;;;;;;;8.05;1.42;;;;;;;5.24;89.08;100028.13;21156965;28;20047;-69
2021/03/12 06:55:06;;;;;;;10.05;1.38;;;;;;;5.39;88.84;100031.00;21062569;28;20507;-69
2021/03/12 07:05:07;;;;;;;9.20;1.27;;;;;;;5.28;88.61;100045.31;21071802;28;20393;-69
2021/03/12 07:15:08;;;;;;;8.88;1.85;;;;;;;5.33;86.13;100045.97;21032712;28;20101;-69
2021/03/12 07:25:10;;;;;;;5.68;1.90;;;;;;;5.65;83.78;100034.31;21070814;28;20152;-69
2021/03/12 07:35:12;;;;;;;10.20;1.65;;;;;;;5.81;83.33;100044.03;21067574;28;20496;-68
2021/03/12 07:45:17;;;;;;;7.78;1.88;;;;;;;5.96;83.03;100073.75;21059092;28;20641;-68
2021/03/12 07:55:37;;;;;;;8.45;1.20;;;;;;;5.88;83.13;100092.25;21072252;28;20040;-69
2021/03/12 08:05:41;;;;;;;10.00;1.50;;;;;;;6.23;81.54;100100.38;21056272;28;20052;-69
2021/03/12 08:15:42;;;;;;;10.27;1.67;;;;;;;6.53;79.32;100112.09;21072714;28;20188;-69
2021/03/12 08:25:49;;;;;;;10.25;1.83;;;;;;;6.57;79.62;100118.00;21079556;28;20070;-69
2021/03/12 08:35:50;;;;;;;8.65;1.85;;;;;;;6.25;81.65;100109.78;21077499;28;20472;-69
2021/03/12 08:46:11;;;;;;;10.05;1.67;;;;;;;6.11;84.43;100108.66;21049694;28;20101;-69
2021/03/12 08:56:20;;;;;;;8.10;2.00;;;;;;;6.81;85.82;100106.53;21066246;28;20048;-70
2021/03/12 09:06:25;;;;;;;15.23;4.70;;;;;;;7.53;83.74;100097.19;21076495;28;20485;-69
2021/03/12 09:16:38;;;;;;;12.88;2.50;;;;;;;8.22;75.61;100080.84;21066260;28;20111;-69
2021/03/12 09:26:41;;;;;;;7.65;1.83;;;;;;;8.43;72.23;100075.41;21072570;28;20055;-69
2021/03/12 09:36:50;;;;;;;7.25;1.58;;;;;;;7.87;70.65;100079.97;21065298;28;20040;-69
2021/03/12 09:46:54;;;;;;;7.53;1.20;;;;;;;6.85;81.91;100067.34;21032278;28;20086;-68
2021/03/12 09:57:04;;;;;;;6.88;1.67;;;;;;;7.95;71.13;100041.34;21050804;28;20119;-69
2021/03/12 10:07:11;;;;;;;10.60;1.58;;;;;;;8.55;66.62;100040.03;21068342;28;20608;-69
2021/03/12 10:17:18;;;;;;;14.55;2.15;;;;;;;8.64;65.63;100021.28;21064403;28;20578;-69
2021/03/12 10:27:21;;;;;;;8.60;2.22;;;;;;;9.13;60.21;100008.25;21054284;28;20556;-68
2021/03/12 10:37:32;;;;;;;8.48;1.95;;;;;;;9.15;58.99;100002.00;21036579;28;20063;-69
2021/03/12 10:47:33;;;;;;;9.88;1.75;;;;;;;9.80;56.74;99993.09;21062544;28;20503;-69
2021/03/12 10:57:46;;;;;;;8.60;2.15;;;;;;;10.42;54.25;99996.44;21048219;28;20074;-69
2021/03/12 11:07:47;;;;;;;7.70;1.40;;;;;;;10.13;52.70;99992.91;21064145;28;20052;-69
2021/03/12 11:17:49;;;;;;;8.77;1.60;;;;;;;10.46;51.75;99973.56;21063987;28;20063;-70
2021/03/12 11:27:50;;;;;;;9.40;1.60;;;;;;;10.45;51.14;99983.19;21039135;28;20045;-70
2021/03/12 11:37:51;;;;;;;10.93;1.65;;;;;;;10.32;51.76;99976.13;21064079;28;20056;-70
2021/03/12 11:47:55;;;;;;;7.40;1.60;;;;;;;9.82;52.01;99966.88;21058460;28;20044;-68
2021/03/12 11:58:06;;;;;;;9.65;1.85;;;;;;;10.40;49.16;99950.38;21062159;28;20416;-69
2021/03/12 12:08:07;;;;;;;11.32;1.60;;;;;;;10.64;48.83;99944.47;21066689;28;20052;-69
2021/03/12 12:18:10;;;;;;;9.10;1.55;;;;;;;10.43;48.54;99939.72;21044359;28;20055;-69
2021/03/12 12:28:29;;;;;;;8.02;1.60;;;;;;;10.79;47.83;99921.75;21054359;28;20455;-69
2021/03/12 12:38:30;;;;;;;6.57;1.52;;;;;;;10.47;48.54;99896.72;21061087;28;20044;-69
2021/03/12 12:48:31;;;;;;;7.40;1.70;;;;;;;10.67;48.18;99878.00;21080598;28;20059;-69
2021/03/12 12:58:47;;;;;;;8.13;1.70;;;;;;;10.79;47.35;99869.38;21069546;28;20052;-69
2021/03/12 13:08:48;;;;;;;8.90;2.00;;;;;;;10.65;48.50;99846.72;21072254;28;20040;-68
2021/03/12 13:18:49;;;;;;;11.18;2.50;;;;;;;10.46;49.68;99850.59;21074624;28;20388;-69
2021/03/12 13:28:51;;;;;;;9.90;1.67;;;;;;;10.61;50.67;99831.31;21056620;28;20048;-69
2021/03/12 13:38:52;;;;;;;7.93;1.40;;;;;;;10.90;52.81;99830.28;21065265;28;20048;-70
2021/03/12 13:48:53;;;;;;;6.00;1.05;;;;;;;10.73;51.16;99836.59;21060294;28;20112;-69
2021/03/12 13:58:54;;;;;;;39.05;4.60;;;;;;;11.15;52.06;99825.13;21055235;28;20052;-70
2021/03/12 14:08:55;;;;;;;9.65;1.35;;;;;;;10.88;50.65;99813.81;21056541;28;20052;-70
2021/03/12 14:18:56;;;;;;;9.25;1.83;;;;;;;10.53;52.29;99810.84;21026209;28;20055;-71
2021/03/12 14:28:58;;;;;;;9.43;1.10;;;;;;;10.56;53.03;99781.03;21031991;28;20040;-70
2021/03/12 14:38:59;;;;;;;9.00;2.38;;;;;;;10.99;52.17;99773.84;21037967;28;20052;-70
2021/03/12 14:49:00;;;;;;;6.45;1.58;;;;;;;11.22;50.35;99738.28;21062110;28;20048;-70
2021/03/12 14:59:03;;;;;;;8.10;1.42;;;;;;;10.99;48.08;99742.41;21069419;28;20102;-70
2021/03/12 15:09:04;;;;;;;9.45;2.17;;;;;;;11.13;47.80;99724.00;21059080;28;20649;-70
2021/03/12 15:19:09;;;;;;;4.73;1.20;;;;;;;11.13;47.90;99724.84;21043962;28;20468;-70
2021/03/12 15:29:10;;;;;;;7.45;1.38;;;;;;;10.82;48.69;99719.97;21057686;28;20487;-69
2021/03/12 15:39:11;;;;;;;11.02;1.90;;;;;;;10.56;49.50;99718.25;21044751;28;20040;-69
2021/03/12 15:49:12;;;;;;;5.80;1.30;;;;;;;10.65;49.12;99694.06;21039787;28;20044;-69
2021/03/12 15:59:14;;;;;;;7.72;1.48;;;;;;;10.56;49.32;99685.06;21053668;28;20045;-70
2021/03/12 16:09:17;;;;;;;8.52;1.58;;;;;;;10.63;50.02;99654.06;21053153;28;20097;-70
2021/03/12 16:19:20;;;;;;;10.13;1.77;;;;;;;10.69;52.49;99630.13;21063657;28;20048;-68
2021/03/12 16:29:21;;;;;;;8.75;1.63;;;;;;;10.25;56.03;99651.38;21068091;28;20131;-68
2021/03/12 16:39:22;;;;;;;7.35;1.50;;;;;;;9.88;58.19;99621.47;21067330;28;20040;-68
2021/03/12 16:49:23;;;;;;;8.27;1.77;;;;;;;9.42;59.58;99616.53;21082270;28;20051;-69
2021/03/12 16:59:24;;;;;;;10.77;3.50;;;;;;;9.19;61.48;99632.78;21075386;28;20043;-69
2021/03/12 17:09:26;;;;;;;8.93;2.55;;;;;;;8.88;63.28;99627.72;21064664;28;20044;-69
2021/03/12 17:19:27;;;;;;;9.25;2.70;;;;;;;8.65;64.27;99626.47;21061664;28;20040;-69
2021/03/12 17:29:28;;;;;;;9.13;2.60;;;;;;;8.47;65.48;99637.97;21061949;28;20487;-69
2021/03/12 17:39:29;;;;;;;11.48;2.35;;;;;;;8.32;66.07;99636.25;21060026;28;20044;-69
2021/03/12 17:49:30;;;;;;;9.52;1.45;;;;;;;8.34;66.15;99614.34;21046538;28;20052;-69
2021/03/12 17:59:31;;;;;;;6.90;1.63;;;;;;;8.33;66.10;99609.25;21030369;28;20044;-68
2021/03/12 18:09:32;;;;;;;4.80;1.13;;;;;;;8.33;66.80;99610.06;21047765;28;20039;-70
2021/03/12 18:19:33;;;;;;;5.85;1.90;;;;;;;8.17;67.09;99611.88;21036227;28;20068;-70
2021/03/12 18:29:36;;;;;;;8.65;1.45;;;;;;;8.23;67.17;99592.44;21025528;28;20466;-69
2021/03/12 18:39:38;;;;;;;2.40;0.98;;;;;;;8.01;68.55;99603.22;21036288;28;20408;-68
2021/03/12 18:49:38;;;;;;;5.68;1.20;;;;;;;8.08;68.88;99573.25;21051029;28;20113;-68
2021/03/12 18:59:40;;;;;;;5.32;1.20;;;;;;;7.79;70.31;99571.47;21028672;28;20516;-68
2021/03/12 19:09:40;;;;;;;4.45;1.13;;;;;;;7.74;70.19;99569.97;21047701;28;20453;-69
2021/03/12 19:19:41;;;;;;;4.88;1.50;;;;;;;7.71;70.58;99564.94;21038125;28;20480;-68
2021/03/12 19:29:43;;;;;;;5.68;1.67;;;;;;;7.82;69.84;99568.72;21023818;28;20048;-69
2021/03/12 19:39:44;;;;;;;7.03;1.60;;;;;;;8.02;69.01;99573.63;21021983;28;20055;-69
2021/03/12 19:49:45;;;;;;;4.72;1.50;;;;;;;8.03;69.34;99585.72;21022090;28;20048;-69
2021/03/12 19:59:46;;;;;;;7.90;1.20;;;;;;;8.01;71.52;99572.81;21053376;28;20055;-68
2021/03/12 20:09:48;;;;;;;7.78;1.80;;;;;;;8.25;69.96;99588.78;21052771;28;20079;-70
2021/03/12 20:19:50;;;;;;;9.07;1.95;;;;;;;8.03;74.95;99648.25;21033234;28;20400;-69
2021/03/12 20:29:52;;;;;;;3.65;0.90;;;;;;;5.98;99.99;99783.63;21048179;28;20094;-68
2021/03/12 20:39:54;;;;;;;3.53;0.38;;;;;;;5.16;98.68;99686.03;21056010;28;20130;-68
2021/03/12 20:49:55;;;;;;;6.43;1.33;;;;;;;5.20;100.00;99728.22;21056968;28;20927;-68
2021/03/12 20:59:57;;;;;;;5.72;1.50;;;;;;;5.33;100.00;99708.66;21042327;28;20076;-67
2021/03/12 21:09:58;;;;;;;2.25;0.65;;;;;;;5.36;99.57;99683.41;21050005;28;20089;-67
2021/03/12 21:19:59;;;;;;;4.90;1.02;;;;;;;5.39;100.00;99677.22;21053006;28;20044;-67
2021/03/12 21:30:05;;;;;;;3.83;0.57;;;;;;;5.39;100.00;99687.59;21047653;28;20036;-68
2021/03/12 21:40:08;;;;;;;2.45;0.70;;;;;;;5.44;100.00;99667.47;21046847;28;20048;-68
2021/03/12 21:50:14;;;;;;;7.43;1.75;;;;;;;5.44;100.00;99707.25;21036968;28;20051;-70
2021/03/12 22:00:18;;;;;;;4.10;0.98;;;;;;;5.57;100.00;99704.97;21030231;28;20044;-67
2021/03/12 22:10:19;;;;;;;2.65;0.80;;;;;;;5.60;99.18;99697.03;21049974;28;20105;-68
2021/03/12 22:20:20;;;;;;;2.85;0.50;;;;;;;5.53;99.46;99688.69;21067070;28;20048;-69
2021/03/12 22:30:24;;;;;;;3.63;0.93;;;;;;;5.48;98.30;99682.88;21064623;28;20047;-68
2021/03/12 22:40:26;;;;;;;2.53;0.80;;;;;;;5.55;98.40;99694.63;21054578;28;20048;-69
2021/03/12 22:50:33;;;;;;;2.78;0.65;;;;;;;5.48;100.00;99695.00;21064799;28;20044;-69
2021/03/12 23:00:36;;;;;;;3.07;0.63;;;;;;;5.45;99.69;99690.78;21061819;28;20101;-68
2021/03/12 23:10:44;;;;;;;3.25;0.80;;;;;;;5.36;100.00;99683.41;21050486;28;20475;-69
2021/03/12 23:20:53;;;;;;;3.85;1.17;;;;;;;5.34;100.00;99674.00;21070778;28;20044;-69
2021/03/12 23:30:58;;;;;;;4.28;1.15;;;;;;;5.45;99.33;99666.56;21117962;28;20457;-69
2021/03/12 23:40:59;;;;;;;2.25;0.77;;;;;;;5.56;98.98;99672.13;21153619;28;20055;-69
2021/03/12 23:51:07;;;;;;;3.05;0.93;;;;;;;5.56;100.00;99674.72;21007877;22;20045;-69
